Pattimura Airport, Ambon
WAPP : now visible

Airfield :











YOU CAN JOIN US ON...

 
LOGIN :

Register | Disclaimer

   EN    FR    IT 

 









Legend :    VFR   Marginal VFR   IFR   Intensive IFR   Very Intensive IFR
Visi :
Ceiling :
>= 8 km
>= 3000ft
5 to 8 km
1000 to 3000 ft
1500m to 5 km
500 to 1000 ft
800 to 1500m
200 to 500 ft
< 800m
< 200 ft
Symbols :   Thunderstorms  Fog  Heavy snow  Heavy precipitations  Wind > 20 kt






- Airport Elevation : 33 ft
- IATA code : AMQ


WAPP - Pattimura , Ambon

CURRENT METAR :
  • 250600Z 21010KT 6000 -RA FEW016CB BKN017 24/23 Q1009 NOSIG RMK CB TO S

EXPIRED METARs :
  • 250530Z 21010KT 4000 RA FEW016CB BKN017 25/24 Q1009 NOSIG RMK CB TO S
  • 250500Z 20008KT 4000 RA FEW016CB BKN017 25/24 Q1009 NOSIG RMK CB TO S
  • 250430Z 19008KT 2000 RA FEW016CB BKN017 25/24 Q1010 TEMPO 0500 RMK CB TO S
  • 250400Z 18005KT 0500 RA FEW016CB BKN017 25/24 Q1010 TEMPO 0200 RMK CB TO S
  • 250330Z VRB02KT 0500 RA FEW016CB BKN017 24/24 Q1010 TEMPO 0200 RMK CB TO SE
  • 250300Z VRB01KT 0500 RA FEW016CB BKN017 24/24 Q1010 TEMPO 0200 RMK CB TO SE
  • 250230Z 16003KT 4000 RA FEW016CB BKN017 24/24 Q1011 TEMPO 1000 RMK CB TO SE
  • 250200Z VRB02KT 0200 RA FEW016CB BKN017 24/24 Q1011 TEMPO 0050 RMK CB TO SE
  • 250130Z 19008KT 0200 RA FEW016CB BKN017 24/24 Q1011 TEMPO 0050 RMK CB TO S

TAF TAF WAPP
Valid from the 25 at 06:00 until the 26 at 06:00 UTC


250500Z 2506/2606 19007KT 7000 -RA FEW016CB BKN017
BECMG 2512/2514 34006KT
WAAF FIR / Asia



MET'MAP, your aeronautical weather chart ! - Copyright ORBIFLY December 2007 - Disclaimer

ORBIFLY MET'MAP TEAM :

Programming & Development : Alexandra Zaïnal
Original concept : Baudouin d'Aumeries
Technical & hardware support : Manuel Goepfert
Assistance : Marc-Olivier Méhu




SOURCES & CREDITS :

   NOAA       Earth
Advisory